sensor_id;sensor_type;location;lat;lon;timestamp;temperature;humidity
4002;DHT22;2015;48.670;9.060;2022-12-11T00:01:28;-2.40;99.90
4002;DHT22;2015;48.670;9.060;2022-12-11T00:03:59;-2.30;99.90
4002;DHT22;2015;48.670;9.060;2022-12-11T00:06:31;-2.40;99.90
4002;DHT22;2015;48.670;9.060;2022-12-11T00:09:03;-2.40;99.90
4002;DHT22;2015;48.670;9.060;2022-12-11T00:11:35;-2.40;99.90
4002;DHT22;2015;48.670;9.060;2022-12-11T00:14:07;-2.50;99.90
4002;DHT22;2015;48.670;9.060;2022-12-11T00:16:39;-2.60;99.90
4002;DHT22;2015;48.670;9.060;2022-12-11T00:19:11;-2.60;99.90
4002;DHT22;2015;48.670;9.060;2022-12-11T00:21:43;-2.60;99.90
4002;DHT22;2015;48.670;9.060;2022-12-11T00:24:15;-2.60;99.90
4002;DHT22;2015;48.670;9.060;2022-12-11T00:26:47;-2.60;99.90
4002;DHT22;2015;48.670;9.060;2022-12-11T00:29:19;-2.70;99.90
4002;DHT22;2015;48.670;9.060;2022-12-11T00:31:50;-2.80;99.90
4002;DHT22;2015;48.670;9.060;2022-12-11T00:34:22;-2.90;99.90
4002;DHT22;2015;48.670;9.060;2022-12-11T00:36:54;-2.90;99.90
4002;DHT22;2015;48.670;9.060;2022-12-11T00:39:26;-2.90;99.90
4002;DHT22;2015;48.670;9.060;2022-12-11T00:41:57;-2.90;99.90
4002;DHT22;2015;48.670;9.060;2022-12-11T00:44:29;-2.90;99.90
4002;DHT22;2015;48.670;9.060;2022-12-11T00:47:03;-3.00;99.90
4002;DHT22;2015;48.670;9.060;2022-12-11T00:49:34;-3.00;99.90
4002;DHT22;2015;48.670;9.060;2022-12-11T00:52:06;-3.00;99.90
4002;DHT22;2015;48.670;9.060;2022-12-11T00:54:38;-3.00;99.90
4002;DHT22;2015;48.670;9.060;2022-12-11T00:57:10;-3.10;99.90
4002;DHT22;2015;48.670;9.060;2022-12-11T00:59:41;-3.10;99.90
4002;DHT22;2015;48.670;9.060;2022-12-11T01:02:13;-3.00;99.90
4002;DHT22;2015;48.670;9.060;2022-12-11T01:04:45;-2.90;99.90
4002;DHT22;2015;48.670;9.060;2022-12-11T01:07:17;-2.80;99.90
4002;DHT22;2015;48.670;9.060;2022-12-11T01:09:48;-2.70;99.90
4002;DHT22;2015;48.670;9.060;2022-12-11T01:12:39;-2.60;99.90
4002;DHT22;2015;48.670;9.060;2022-12-11T01:15:11;-2.40;99.90
4002;DHT22;2015;48.670;9.060;2022-12-11T01:17:43;-2.30;99.90
4002;DHT22;2015;48.670;9.060;2022-12-11T01:20:15;-2.20;99.90
4002;DHT22;2015;48.670;9.060;2022-12-11T01:22:47;-2.20;99.90
4002;DHT22;2015;48.670;9.060;2022-12-11T01:25:19;-2.20;99.90
4002;DHT22;2015;48.670;9.060;2022-12-11T01:27:52;-2.10;99.90
4002;DHT22;2015;48.670;9.060;2022-12-11T01:30:25;-2.10;99.90
4002;DHT22;2015;48.670;9.060;2022-12-11T01:32:57;-2.00;99.90
4002;DHT22;2015;48.670;9.060;2022-12-11T01:35:29;-1.80;99.90
4002;DHT22;2015;48.670;9.060;2022-12-11T01:38:00;-1.70;99.90
4002;DHT22;2015;48.670;9.060;2022-12-11T01:40:33;-1.60;99.90
4002;DHT22;2015;48.670;9.060;2022-12-11T01:43:05;-1.60;99.90
4002;DHT22;2015;48.670;9.060;2022-12-11T01:45:42;-1.70;99.90
4002;DHT22;2015;48.670;9.060;2022-12-11T01:48:22;-1.70;99.90
4002;DHT22;2015;48.670;9.060;2022-12-11T01:51:01;-1.80;99.90
4002;DHT22;2015;48.670;9.060;2022-12-11T01:53:39;-1.70;99.90
4002;DHT22;2015;48.670;9.060;2022-12-11T01:56:12;-1.70;99.90
4002;DHT22;2015;48.670;9.060;2022-12-11T01:58:51;-1.70;99.90
4002;DHT22;2015;48.670;9.060;2022-12-11T02:01:31;-1.70;99.90
4002;DHT22;2015;48.670;9.060;2022-12-11T02:04:06;-1.60;99.90
4002;DHT22;2015;48.670;9.060;2022-12-11T02:06:44;-1.50;99.90
4002;DHT22;2015;48.670;9.060;2022-12-11T02:09:22;-1.40;99.90
4002;DHT22;2015;48.670;9.060;2022-12-11T02:20:48;-1.30;99.90
4002;DHT22;2015;48.670;9.060;2022-12-11T02:26:42;-1.30;99.90
4002;DHT22;2015;48.670;9.060;2022-12-11T02:29:52;-1.30;99.90
4002;DHT22;2015;48.670;9.060;2022-12-11T02:32:26;-1.30;99.90
4002;DHT22;2015;48.670;9.060;2022-12-11T02:35:17;-1.20;99.90
4002;DHT22;2015;48.670;9.060;2022-12-11T02:37:55;-1.20;99.90
4002;DHT22;2015;48.670;9.060;2022-12-11T02:40:30;-1.20;99.90
4002;DHT22;2015;48.670;9.060;2022-12-11T02:43:06;-1.20;99.90
4002;DHT22;2015;48.670;9.060;2022-12-11T02:45:41;-1.20;99.90
4002;DHT22;2015;48.670;9.060;2022-12-11T02:48:14;-1.20;99.90
4002;DHT22;2015;48.670;9.060;2022-12-11T02:50:51;-1.10;99.90
4002;DHT22;2015;48.670;9.060;2022-12-11T02:53:25;-1.10;99.90
4002;DHT22;2015;48.670;9.060;2022-12-11T02:56:28;-1.10;99.90
4002;DHT22;2015;48.670;9.060;2022-12-11T02:59:08;-1.10;99.90
4002;DHT22;2015;48.670;9.060;2022-12-11T03:01:42;-1.10;99.90
4002;DHT22;2015;48.670;9.060;2022-12-11T03:04:14;-1.20;99.90
4002;DHT22;2015;48.670;9.060;2022-12-11T03:06:50;-1.20;99.90
4002;DHT22;2015;48.670;9.060;2022-12-11T03:09:23;-1.30;99.90
4002;DHT22;2015;48.670;9.060;2022-12-11T03:11:54;-1.40;99.90
4002;DHT22;2015;48.670;9.060;2022-12-11T03:14:26;-1.50;99.90
4002;DHT22;2015;48.670;9.060;2022-12-11T03:17:18;-1.50;99.90
4002;DHT22;2015;48.670;9.060;2022-12-11T03:20:02;-1.50;99.90
4002;DHT22;2015;48.670;9.060;2022-12-11T03:22:48;-1.60;99.90
4002;DHT22;2015;48.670;9.060;2022-12-11T03:25:25;-1.60;99.90
4002;DHT22;2015;48.670;9.060;2022-12-11T03:28:05;-1.70;99.90
4002;DHT22;2015;48.670;9.060;2022-12-11T03:30:40;-1.70;99.90
4002;DHT22;2015;48.670;9.060;2022-12-11T03:33:30;-1.70;99.90
4002;DHT22;2015;48.670;9.060;2022-12-11T03:36:13;-1.70;99.90
4002;DHT22;2015;48.670;9.060;2022-12-11T03:38:52;-1.70;99.90
4002;DHT22;2015;48.670;9.060;2022-12-11T03:41:26;-1.60;99.90
4002;DHT22;2015;48.670;9.060;2022-12-11T03:43:59;-1.60;99.90
4002;DHT22;2015;48.670;9.060;2022-12-11T03:46:34;-1.60;99.90
4002;DHT22;2015;48.670;9.060;2022-12-11T03:49:18;-1.60;99.90
4002;DHT22;2015;48.670;9.060;2022-12-11T03:51:53;-1.60;99.90
4002;DHT22;2015;48.670;9.060;2022-12-11T03:54:26;-1.60;99.90
4002;DHT22;2015;48.670;9.060;2022-12-11T03:57:00;-1.60;99.90
4002;DHT22;2015;48.670;9.060;2022-12-11T03:59:32;-1.50;99.90
4002;DHT22;2015;48.670;9.060;2022-12-11T04:02:04;-1.50;99.90
4002;DHT22;2015;48.670;9.060;2022-12-11T04:04:41;-1.40;99.90
4002;DHT22;2015;48.670;9.060;2022-12-11T04:07:13;-1.40;99.90
4002;DHT22;2015;48.670;9.060;2022-12-11T04:09:45;-1.40;99.90
4002;DHT22;2015;48.670;9.060;2022-12-11T04:12:17;-1.40;99.90
4002;DHT22;2015;48.670;9.060;2022-12-11T04:14:48;-1.40;99.90
4002;DHT22;2015;48.670;9.060;2022-12-11T04:17:34;-1.40;99.90
4002;DHT22;2015;48.670;9.060;2022-12-11T04:20:25;-1.30;99.90
4002;DHT22;2015;48.670;9.060;2022-12-11T04:23:17;-1.30;99.90
4002;DHT22;2015;48.670;9.060;2022-12-11T04:26:15;-1.30;99.90
4002;DHT22;2015;48.670;9.060;2022-12-11T04:28:47;-1.30;99.90
4002;DHT22;2015;48.670;9.060;2022-12-11T04:31:21;-1.20;99.90
4002;DHT22;2015;48.670;9.060;2022-12-11T04:33:54;-1.20;99.90
4002;DHT22;2015;48.670;9.060;2022-12-11T04:36:26;-1.20;99.90
4002;DHT22;2015;48.670;9.060;2022-12-11T04:38:58;-1.20;99.90
4002;DHT22;2015;48.670;9.060;2022-12-11T04:41:30;-1.10;99.90
4002;DHT22;2015;48.670;9.060;2022-12-11T04:44:02;-1.20;99.90
4002;DHT22;2015;48.670;9.060;2022-12-11T04:46:34;-1.20;99.90
4002;DHT22;2015;48.670;9.060;2022-12-11T04:49:06;-1.20;99.90
4002;DHT22;2015;48.670;9.060;2022-12-11T04:51:38;-1.20;99.90
4002;DHT22;2015;48.670;9.060;2022-12-11T04:54:10;-1.10;99.90
4002;DHT22;2015;48.670;9.060;2022-12-11T04:56:42;-1.20;99.90
4002;DHT22;2015;48.670;9.060;2022-12-11T04:59:13;-1.20;99.90
4002;DHT22;2015;48.670;9.060;2022-12-11T05:01:45;-1.20;99.90
4002;DHT22;2015;48.670;9.060;2022-12-11T05:04:17;-1.20;99.90
4002;DHT22;2015;48.670;9.060;2022-12-11T05:06:49;-1.20;99.90
4002;DHT22;2015;48.670;9.060;2022-12-11T05:09:21;-1.20;99.90
4002;DHT22;2015;48.670;9.060;2022-12-11T05:11:53;-1.20;99.90
4002;DHT22;2015;48.670;9.060;2022-12-11T05:14:25;-1.30;99.90
4002;DHT22;2015;48.670;9.060;2022-12-11T05:16:58;-1.40;99.90
4002;DHT22;2015;48.670;9.060;2022-12-11T05:19:30;-1.50;99.90
4002;DHT22;2015;48.670;9.060;2022-12-11T05:22:02;-1.50;99.90
4002;DHT22;2015;48.670;9.060;2022-12-11T05:24:33;-1.50;99.90
4002;DHT22;2015;48.670;9.060;2022-12-11T05:27:05;-1.40;99.90
4002;DHT22;2015;48.670;9.060;2022-12-11T05:29:37;-1.40;99.90
4002;DHT22;2015;48.670;9.060;2022-12-11T05:32:10;-1.40;99.90
4002;DHT22;2015;48.670;9.060;2022-12-11T05:34:42;-1.40;99.90
4002;DHT22;2015;48.670;9.060;2022-12-11T05:37:14;-1.40;99.90
4002;DHT22;2015;48.670;9.060;2022-12-11T05:39:46;-1.40;99.90
4002;DHT22;2015;48.670;9.060;2022-12-11T05:42:18;-1.30;99.90
4002;DHT22;2015;48.670;9.060;2022-12-11T05:44:57;-1.30;99.90
4002;DHT22;2015;48.670;9.060;2022-12-11T05:47:30;-1.40;99.90
4002;DHT22;2015;48.670;9.060;2022-12-11T05:50:02;-1.40;99.90
4002;DHT22;2015;48.670;9.060;2022-12-11T05:52:34;-1.50;99.90
4002;DHT22;2015;48.670;9.060;2022-12-11T05:55:06;-1.60;99.90
4002;DHT22;2015;48.670;9.060;2022-12-11T05:57:40;-1.70;99.90
4002;DHT22;2015;48.670;9.060;2022-12-11T06:00:12;-1.80;99.90
4002;DHT22;2015;48.670;9.060;2022-12-11T06:02:44;-1.80;99.90
4002;DHT22;2015;48.670;9.060;2022-12-11T06:05:16;-1.90;99.90
4002;DHT22;2015;48.670;9.060;2022-12-11T06:07:48;-2.00;99.90
4002;DHT22;2015;48.670;9.060;2022-12-11T06:10:19;-2.10;99.90
4002;DHT22;2015;48.670;9.060;2022-12-11T06:12:51;-2.20;99.90
4002;DHT22;2015;48.670;9.060;2022-12-11T06:15:23;-2.30;99.90
4002;DHT22;2015;48.670;9.060;2022-12-11T06:17:55;-2.30;99.90
4002;DHT22;2015;48.670;9.060;2022-12-11T06:20:30;-2.40;99.90
4002;DHT22;2015;48.670;9.060;2022-12-11T06:23:02;-2.50;99.90
4002;DHT22;2015;48.670;9.060;2022-12-11T06:25:34;-2.60;99.90
4002;DHT22;2015;48.670;9.060;2022-12-11T06:28:08;-2.60;99.90
4002;DHT22;2015;48.670;9.060;2022-12-11T06:30:40;-2.70;99.90
4002;DHT22;2015;48.670;9.060;2022-12-11T06:33:11;-2.70;99.90
4002;DHT22;2015;48.670;9.060;2022-12-11T06:35:44;-2.80;99.90
4002;DHT22;2015;48.670;9.060;2022-12-11T06:38:15;-2.80;99.90
4002;DHT22;2015;48.670;9.060;2022-12-11T06:40:58;-2.90;99.90
4002;DHT22;2015;48.670;9.060;2022-12-11T06:43:32;-2.90;99.90
4002;DHT22;2015;48.670;9.060;2022-12-11T06:46:05;-2.90;99.90
4002;DHT22;2015;48.670;9.060;2022-12-11T06:48:37;-2.90;99.90
4002;DHT22;2015;48.670;9.060;2022-12-11T06:51:14;-3.00;99.90
4002;DHT22;2015;48.670;9.060;2022-12-11T06:53:53;-3.00;99.90
4002;DHT22;2015;48.670;9.060;2022-12-11T06:56:26;-3.00;99.90
4002;DHT22;2015;48.670;9.060;2022-12-11T06:58:58;-3.00;99.90
4002;DHT22;2015;48.670;9.060;2022-12-11T07:01:37;-3.00;99.90
4002;DHT22;2015;48.670;9.060;2022-12-11T07:04:09;-3.00;99.90
4002;DHT22;2015;48.670;9.060;2022-12-11T07:06:41;-3.00;99.90
4002;DHT22;2015;48.670;9.060;2022-12-11T07:09:13;-3.00;99.90
4002;DHT22;2015;48.670;9.060;2022-12-11T07:11:44;-3.10;99.90
4002;DHT22;2015;48.670;9.060;2022-12-11T07:14:16;-3.00;99.90
4002;DHT22;2015;48.670;9.060;2022-12-11T07:16:48;-3.00;99.90
4002;DHT22;2015;48.670;9.060;2022-12-11T07:19:20;-3.00;99.90
4002;DHT22;2015;48.670;9.060;2022-12-11T07:21:52;-3.00;99.90
4002;DHT22;2015;48.670;9.060;2022-12-11T07:24:24;-3.10;99.90
4002;DHT22;2015;48.670;9.060;2022-12-11T07:26:56;-3.00;99.90
4002;DHT22;2015;48.670;9.060;2022-12-11T07:29:27;-3.00;99.90
4002;DHT22;2015;48.670;9.060;2022-12-11T07:31:59;-2.90;99.90
4002;DHT22;2015;48.670;9.060;2022-12-11T07:34:31;-2.80;99.90
4002;DHT22;2015;48.670;9.060;2022-12-11T07:37:03;-2.70;99.90
4002;DHT22;2015;48.670;9.060;2022-12-11T07:39:35;-2.70;99.90
4002;DHT22;2015;48.670;9.060;2022-12-11T07:42:06;-2.60;99.90
4002;DHT22;2015;48.670;9.060;2022-12-11T07:44:38;-2.60;99.90
4002;DHT22;2015;48.670;9.060;2022-12-11T07:47:10;-2.50;99.90
4002;DHT22;2015;48.670;9.060;2022-12-11T07:49:42;-2.50;99.90
4002;DHT22;2015;48.670;9.060;2022-12-11T07:52:13;-2.50;99.90
4002;DHT22;2015;48.670;9.060;2022-12-11T07:54:45;-2.60;99.90
4002;DHT22;2015;48.670;9.060;2022-12-11T07:57:17;-2.60;99.90
4002;DHT22;2015;48.670;9.060;2022-12-11T07:59:49;-2.50;99.90
4002;DHT22;2015;48.670;9.060;2022-12-11T08:02:20;-2.60;99.90
4002;DHT22;2015;48.670;9.060;2022-12-11T08:04:52;-2.50;99.90
4002;DHT22;2015;48.670;9.060;2022-12-11T08:07:24;-2.50;99.90
4002;DHT22;2015;48.670;9.060;2022-12-11T08:09:56;-2.40;99.90
4002;DHT22;2015;48.670;9.060;2022-12-11T08:12:28;-2.30;99.90
4002;DHT22;2015;48.670;9.060;2022-12-11T08:14:59;-2.10;99.90
4002;DHT22;2015;48.670;9.060;2022-12-11T08:17:31;-2.00;99.90
4002;DHT22;2015;48.670;9.060;2022-12-11T08:20:10;-1.80;99.90
4002;DHT22;2015;48.670;9.060;2022-12-11T08:22:41;-1.70;99.90
4002;DHT22;2015;48.670;9.060;2022-12-11T08:25:13;-1.50;99.90
4002;DHT22;2015;48.670;9.060;2022-12-11T08:27:45;-1.40;99.90
4002;DHT22;2015;48.670;9.060;2022-12-11T08:30:17;-1.30;99.90
4002;DHT22;2015;48.670;9.060;2022-12-11T08:32:48;-1.30;99.90
4002;DHT22;2015;48.670;9.060;2022-12-11T08:35:20;-1.20;99.90
4002;DHT22;2015;48.670;9.060;2022-12-11T08:37:52;-1.20;99.90
4002;DHT22;2015;48.670;9.060;2022-12-11T08:40:24;-1.20;99.90
4002;DHT22;2015;48.670;9.060;2022-12-11T08:42:56;-1.30;99.90
4002;DHT22;2015;48.670;9.060;2022-12-11T08:45:27;-1.30;99.90
4002;DHT22;2015;48.670;9.060;2022-12-11T08:47:59;-1.30;99.90
4002;DHT22;2015;48.670;9.060;2022-12-11T08:50:32;-1.20;99.90
4002;DHT22;2015;48.670;9.060;2022-12-11T08:53:03;-1.20;99.90
4002;DHT22;2015;48.670;9.060;2022-12-11T08:55:35;-1.10;99.90
4002;DHT22;2015;48.670;9.060;2022-12-11T08:58:08;-1.10;99.90
4002;DHT22;2015;48.670;9.060;2022-12-11T09:00:40;-1.00;99.90
4002;DHT22;2015;48.670;9.060;2022-12-11T09:03:12;-0.90;99.90
4002;DHT22;2015;48.670;9.060;2022-12-11T09:05:43;-1.00;99.90
4002;DHT22;2015;48.670;9.060;2022-12-11T09:08:15;-0.90;99.90
4002;DHT22;2015;48.670;9.060;2022-12-11T09:10:47;-0.80;99.90
4002;DHT22;2015;48.670;9.060;2022-12-11T09:13:19;-0.80;99.90
4002;DHT22;2015;48.670;9.060;2022-12-11T09:15:51;-0.80;99.90
4002;DHT22;2015;48.670;9.060;2022-12-11T09:18:22;-0.70;99.90
4002;DHT22;2015;48.670;9.060;2022-12-11T09:20:59;-0.60;99.90
4002;DHT22;2015;48.670;9.060;2022-12-11T09:23:32;-0.60;99.90
4002;DHT22;2015;48.670;9.060;2022-12-11T09:26:08;-0.60;99.90
4002;DHT22;2015;48.670;9.060;2022-12-11T09:28:41;-0.50;99.90
4002;DHT22;2015;48.670;9.060;2022-12-11T09:31:23;-0.50;99.90
4002;DHT22;2015;48.670;9.060;2022-12-11T09:33:58;-0.40;99.90
4002;DHT22;2015;48.670;9.060;2022-12-11T09:36:30;-0.50;99.90
4002;DHT22;2015;48.670;9.060;2022-12-11T09:39:04;-0.50;99.90
4002;DHT22;2015;48.670;9.060;2022-12-11T09:41:58;-0.50;99.90
4002;DHT22;2015;48.670;9.060;2022-12-11T09:44:42;-0.40;99.90
4002;DHT22;2015;48.670;9.060;2022-12-11T09:47:35;-0.40;99.90
4002;DHT22;2015;48.670;9.060;2022-12-11T09:55:22;-0.10;99.90
4002;DHT22;2015;48.670;9.060;2022-12-11T09:58:04;0.00;99.90
4002;DHT22;2015;48.670;9.060;2022-12-11T10:00:47;0.10;99.90
4002;DHT22;2015;48.670;9.060;2022-12-11T10:03:56;0.20;99.90
4002;DHT22;2015;48.670;9.060;2022-12-11T10:06:41;0.30;99.90
4002;DHT22;2015;48.670;9.060;2022-12-11T10:09:23;0.40;99.90
4002;DHT22;2015;48.670;9.060;2022-12-11T10:15:04;0.40;99.90
4002;DHT22;2015;48.670;9.060;2022-12-11T10:17:39;0.40;99.90
4002;DHT22;2015;48.670;9.060;2022-12-11T10:20:25;0.50;99.90
4002;DHT22;2015;48.670;9.060;2022-12-11T10:22:59;0.40;99.90
4002;DHT22;2015;48.670;9.060;2022-12-11T10:25:40;0.50;99.90
4002;DHT22;2015;48.670;9.060;2022-12-11T10:28:15;0.50;99.90
4002;DHT22;2015;48.670;9.060;2022-12-11T10:31:17;0.60;99.90
4002;DHT22;2015;48.670;9.060;2022-12-11T10:34:12;0.70;99.90
4002;DHT22;2015;48.670;9.060;2022-12-11T10:36:44;0.70;99.90
4002;DHT22;2015;48.670;9.060;2022-12-11T10:39:18;0.70;99.90
4002;DHT22;2015;48.670;9.060;2022-12-11T10:41:52;0.60;99.90
4002;DHT22;2015;48.670;9.060;2022-12-11T10:44:27;0.70;99.90
4002;DHT22;2015;48.670;9.060;2022-12-11T10:47:13;0.80;99.90
4002;DHT22;2015;48.670;9.060;2022-12-11T10:50:22;0.80;99.90
4002;DHT22;2015;48.670;9.060;2022-12-11T10:52:54;0.90;99.90
4002;DHT22;2015;48.670;9.060;2022-12-11T10:55:30;1.00;99.90
4002;DHT22;2015;48.670;9.060;2022-12-11T10:58:05;1.00;99.90
4002;DHT22;2015;48.670;9.060;2022-12-11T11:00:40;1.00;99.90
4002;DHT22;2015;48.670;9.060;2022-12-11T11:03:24;0.90;99.90
4002;DHT22;2015;48.670;9.060;2022-12-11T11:06:03;1.00;99.90
4002;DHT22;2015;48.670;9.060;2022-12-11T11:08:41;1.00;99.90
4002;DHT22;2015;48.670;9.060;2022-12-11T11:14:13;0.90;99.90
4002;DHT22;2015;48.670;9.060;2022-12-11T11:16:48;0.70;99.90
4002;DHT22;2015;48.670;9.060;2022-12-11T11:19:24;0.90;99.90
4002;DHT22;2015;48.670;9.060;2022-12-11T11:22:17;0.90;99.90
4002;DHT22;2015;48.670;9.060;2022-12-11T11:24:57;0.90;99.90
4002;DHT22;2015;48.670;9.060;2022-12-11T11:30:57;1.00;99.90
4002;DHT22;2015;48.670;9.060;2022-12-11T11:33:32;1.00;99.90
4002;DHT22;2015;48.670;9.060;2022-12-11T11:36:06;1.20;99.90
4002;DHT22;2015;48.670;9.060;2022-12-11T11:39:01;1.20;99.90
4002;DHT22;2015;48.670;9.060;2022-12-11T11:41:39;1.20;99.90
4002;DHT22;2015;48.670;9.060;2022-12-11T11:44:27;1.30;99.90
4002;DHT22;2015;48.670;9.060;2022-12-11T11:47:23;1.30;99.90
4002;DHT22;2015;48.670;9.060;2022-12-11T11:50:36;1.40;99.90
4002;DHT22;2015;48.670;9.060;2022-12-11T11:53:21;1.40;99.90
4002;DHT22;2015;48.670;9.060;2022-12-11T12:01:36;1.30;99.90
4002;DHT22;2015;48.670;9.060;2022-12-11T12:04:11;1.20;99.90
4002;DHT22;2015;48.670;9.060;2022-12-11T12:09:57;1.20;99.90
4002;DHT22;2015;48.670;9.060;2022-12-11T12:12:57;1.20;99.90
4002;DHT22;2015;48.670;9.060;2022-12-11T12:18:40;1.40;99.90
4002;DHT22;2015;48.670;9.060;2022-12-11T12:21:37;1.30;99.90
4002;DHT22;2015;48.670;9.060;2022-12-11T12:27:07;1.40;99.90
4002;DHT22;2015;48.670;9.060;2022-12-11T12:30:02;1.40;99.90
4002;DHT22;2015;48.670;9.060;2022-12-11T12:35:37;1.30;99.90
4002;DHT22;2015;48.670;9.060;2022-12-11T12:38:31;1.30;99.90
4002;DHT22;2015;48.670;9.060;2022-12-11T12:41:34;1.30;99.90
4002;DHT22;2015;48.670;9.060;2022-12-11T12:44:16;1.20;99.90
4002;DHT22;2015;48.670;9.060;2022-12-11T12:47:02;1.20;99.90
4002;DHT22;2015;48.670;9.060;2022-12-11T12:49:46;1.10;99.90
4002;DHT22;2015;48.670;9.060;2022-12-11T12:52:25;1.10;99.90
4002;DHT22;2015;48.670;9.060;2022-12-11T12:55:04;1.20;99.90
4002;DHT22;2015;48.670;9.060;2022-12-11T12:58:21;1.10;99.90
4002;DHT22;2015;48.670;9.060;2022-12-11T13:00:43;1.10;99.90
4002;DHT22;2015;48.670;9.060;2022-12-11T13:05:58;1.30;99.90
4002;DHT22;2015;48.670;9.060;2022-12-11T13:08:48;1.30;99.90
4002;DHT22;2015;48.670;9.060;2022-12-11T13:11:30;1.40;99.90
4002;DHT22;2015;48.670;9.060;2022-12-11T13:17:06;1.40;99.90
4002;DHT22;2015;48.670;9.060;2022-12-11T13:19:38;1.40;99.90
4002;DHT22;2015;48.670;9.060;2022-12-11T13:27:42;1.30;99.90
4002;DHT22;2015;48.670;9.060;2022-12-11T13:33:13;1.20;99.90
4002;DHT22;2015;48.670;9.060;2022-12-11T13:35:46;1.30;99.90
4002;DHT22;2015;48.670;9.060;2022-12-11T13:38:20;1.20;99.90
4002;DHT22;2015;48.670;9.060;2022-12-11T13:40:54;1.10;99.90
4002;DHT22;2015;48.670;9.060;2022-12-11T13:43:29;1.10;99.90
4002;DHT22;2015;48.670;9.060;2022-12-11T13:46:08;1.20;99.90
4002;DHT22;2015;48.670;9.060;2022-12-11T13:51:21;1.30;99.90
4002;DHT22;2015;48.670;9.060;2022-12-11T13:54:14;1.30;99.90
4002;DHT22;2015;48.670;9.060;2022-12-11T13:57:15;1.30;99.90
4002;DHT22;2015;48.670;9.060;2022-12-11T13:59:52;1.10;99.90
4002;DHT22;2015;48.670;9.060;2022-12-11T14:02:30;1.10;99.90
4002;DHT22;2015;48.670;9.060;2022-12-11T14:05:08;1.10;99.90
4002;DHT22;2015;48.670;9.060;2022-12-11T14:07:52;1.10;99.90
4002;DHT22;2015;48.670;9.060;2022-12-11T14:10:29;1.10;99.90
4002;DHT22;2015;48.670;9.060;2022-12-11T14:13:04;1.00;99.90
4002;DHT22;2015;48.670;9.060;2022-12-11T14:15:37;1.00;99.90
4002;DHT22;2015;48.670;9.060;2022-12-11T14:18:19;1.00;99.90
4002;DHT22;2015;48.670;9.060;2022-12-11T14:20:57;1.00;99.90
4002;DHT22;2015;48.670;9.060;2022-12-11T14:23:31;1.00;99.90
4002;DHT22;2015;48.670;9.060;2022-12-11T14:26:17;1.00;99.90
4002;DHT22;2015;48.670;9.060;2022-12-11T14:28:51;1.00;99.90
4002;DHT22;2015;48.670;9.060;2022-12-11T14:31:36;1.00;99.90
4002;DHT22;2015;48.670;9.060;2022-12-11T14:34:16;1.00;99.90
4002;DHT22;2015;48.670;9.060;2022-12-11T14:36:49;1.10;99.90
4002;DHT22;2015;48.670;9.060;2022-12-11T14:39:36;1.10;99.90
4002;DHT22;2015;48.670;9.060;2022-12-11T14:42:18;1.10;99.90
4002;DHT22;2015;48.670;9.060;2022-12-11T14:45:31;1.20;99.90
4002;DHT22;2015;48.670;9.060;2022-12-11T14:48:12;1.10;99.90
4002;DHT22;2015;48.670;9.060;2022-12-11T14:50:47;0.90;99.90
4002;DHT22;2015;48.670;9.060;2022-12-11T14:53:34;0.90;99.90
4002;DHT22;2015;48.670;9.060;2022-12-11T14:56:12;0.80;99.90
4002;DHT22;2015;48.670;9.060;2022-12-11T14:59:01;0.80;99.90
4002;DHT22;2015;48.670;9.060;2022-12-11T15:01:35;0.80;99.90
4002;DHT22;2015;48.670;9.060;2022-12-11T15:06:47;0.80;99.90
4002;DHT22;2015;48.670;9.060;2022-12-11T15:09:38;0.80;99.90
4002;DHT22;2015;48.670;9.060;2022-12-11T15:12:15;0.70;99.90
4002;DHT22;2015;48.670;9.060;2022-12-11T15:14:54;0.70;99.90
4002;DHT22;2015;48.670;9.060;2022-12-11T15:17:27;0.60;99.90
4002;DHT22;2015;48.670;9.060;2022-12-11T15:20:08;0.60;99.90
4002;DHT22;2015;48.670;9.060;2022-12-11T15:22:42;0.60;99.90
4002;DHT22;2015;48.670;9.060;2022-12-11T15:25:23;0.50;99.90
4002;DHT22;2015;48.670;9.060;2022-12-11T15:27:58;0.40;99.90
4002;DHT22;2015;48.670;9.060;2022-12-11T15:30:33;0.30;99.90
4002;DHT22;2015;48.670;9.060;2022-12-11T15:41:02;0.00;99.90
4002;DHT22;2015;48.670;9.060;2022-12-11T15:43:35;0.00;99.90
4002;DHT22;2015;48.670;9.060;2022-12-11T15:46:08;0.00;99.90
4002;DHT22;2015;48.670;9.060;2022-12-11T15:48:40;-0.10;99.90
4002;DHT22;2015;48.670;9.060;2022-12-11T15:51:11;-0.10;99.90
4002;DHT22;2015;48.670;9.060;2022-12-11T15:53:43;-0.20;99.90
4002;DHT22;2015;48.670;9.060;2022-12-11T15:56:15;-0.20;99.90
4002;DHT22;2015;48.670;9.060;2022-12-11T15:58:48;-0.20;99.90
4002;DHT22;2015;48.670;9.060;2022-12-11T16:01:21;-0.20;99.90
4002;DHT22;2015;48.670;9.060;2022-12-11T16:03:52;-0.20;99.90
4002;DHT22;2015;48.670;9.060;2022-12-11T16:06:24;-0.30;99.90
4002;DHT22;2015;48.670;9.060;2022-12-11T16:08:56;-0.30;99.90
4002;DHT22;2015;48.670;9.060;2022-12-11T16:11:28;-0.30;99.90
4002;DHT22;2015;48.670;9.060;2022-12-11T16:13:59;-0.30;99.90
4002;DHT22;2015;48.670;9.060;2022-12-11T16:16:34;-0.40;99.90
4002;DHT22;2015;48.670;9.060;2022-12-11T16:19:06;-0.40;99.90
4002;DHT22;2015;48.670;9.060;2022-12-11T16:21:38;-0.40;99.90
4002;DHT22;2015;48.670;9.060;2022-12-11T16:24:10;-0.40;99.90
4002;DHT22;2015;48.670;9.060;2022-12-11T16:26:41;-0.50;99.90
4002;DHT22;2015;48.670;9.060;2022-12-11T16:29:13;-0.50;99.90
4002;DHT22;2015;48.670;9.060;2022-12-11T16:31:45;-0.60;99.90
4002;DHT22;2015;48.670;9.060;2022-12-11T16:34:17;-0.60;99.90
4002;DHT22;2015;48.670;9.060;2022-12-11T16:36:49;-0.70;99.90
4002;DHT22;2015;48.670;9.060;2022-12-11T16:39:21;-0.70;99.90
4002;DHT22;2015;48.670;9.060;2022-12-11T16:41:53;-0.70;99.90
4002;DHT22;2015;48.670;9.060;2022-12-11T16:44:25;-0.70;99.90
4002;DHT22;2015;48.670;9.060;2022-12-11T16:46:57;-0.70;99.90
4002;DHT22;2015;48.670;9.060;2022-12-11T16:49:30;-0.60;99.90
4002;DHT22;2015;48.670;9.060;2022-12-11T16:52:02;-0.60;99.90
4002;DHT22;2015;48.670;9.060;2022-12-11T16:54:34;-0.60;99.90
4002;DHT22;2015;48.670;9.060;2022-12-11T16:57:05;-0.50;99.90
4002;DHT22;2015;48.670;9.060;2022-12-11T16:59:37;-0.50;99.90
4002;DHT22;2015;48.670;9.060;2022-12-11T17:02:10;-0.50;99.90
4002;DHT22;2015;48.670;9.060;2022-12-11T17:04:41;-0.60;99.90
4002;DHT22;2015;48.670;9.060;2022-12-11T17:07:14;-0.60;99.90
4002;DHT22;2015;48.670;9.060;2022-12-11T17:09:46;-0.60;99.90
4002;DHT22;2015;48.670;9.060;2022-12-11T17:12:18;-0.60;99.90
4002;DHT22;2015;48.670;9.060;2022-12-11T17:14:54;-0.60;99.90
4002;DHT22;2015;48.670;9.060;2022-12-11T17:17:26;-0.60;99.90
4002;DHT22;2015;48.670;9.060;2022-12-11T17:19:58;-0.60;99.90
4002;DHT22;2015;48.670;9.060;2022-12-11T17:22:30;-0.60;99.90
4002;DHT22;2015;48.670;9.060;2022-12-11T17:25:02;-0.60;99.90
4002;DHT22;2015;48.670;9.060;2022-12-11T17:27:34;-0.60;99.90
4002;DHT22;2015;48.670;9.060;2022-12-11T17:30:06;-0.60;99.90
4002;DHT22;2015;48.670;9.060;2022-12-11T17:32:38;-0.60;99.90
4002;DHT22;2015;48.670;9.060;2022-12-11T17:35:10;-0.60;99.90
4002;DHT22;2015;48.670;9.060;2022-12-11T17:37:42;-0.70;99.90
4002;DHT22;2015;48.670;9.060;2022-12-11T17:40:13;-0.70;99.90
4002;DHT22;2015;48.670;9.060;2022-12-11T17:42:45;-0.70;99.90
4002;DHT22;2015;48.670;9.060;2022-12-11T17:45:17;-0.80;99.90
4002;DHT22;2015;48.670;9.060;2022-12-11T17:47:49;-0.80;99.90
4002;DHT22;2015;48.670;9.060;2022-12-11T17:50:21;-0.90;99.90
4002;DHT22;2015;48.670;9.060;2022-12-11T17:52:53;-0.90;99.90
4002;DHT22;2015;48.670;9.060;2022-12-11T17:55:24;-0.90;99.90
4002;DHT22;2015;48.670;9.060;2022-12-11T17:57:56;-0.80;99.90
4002;DHT22;2015;48.670;9.060;2022-12-11T18:00:28;-0.80;99.90
4002;DHT22;2015;48.670;9.060;2022-12-11T18:03:04;-0.90;99.90
4002;DHT22;2015;48.670;9.060;2022-12-11T18:05:45;-0.90;99.90
4002;DHT22;2015;48.670;9.060;2022-12-11T18:08:19;-1.00;99.90
4002;DHT22;2015;48.670;9.060;2022-12-11T18:10:52;-1.00;99.90
4002;DHT22;2015;48.670;9.060;2022-12-11T18:13:24;-1.00;99.90
4002;DHT22;2015;48.670;9.060;2022-12-11T18:16:12;-1.10;99.90